sensor_id;sensor_type;location;lat;lon;timestamp;temperature;humidity
6256;DHT22;3161;48.794;9.784;2023-04-25T00:02:19;9.00;99.90
6256;DHT22;3161;48.794;9.784;2023-04-25T00:04:47;9.00;99.90
6256;DHT22;3161;48.794;9.784;2023-04-25T00:07:15;9.10;99.90
6256;DHT22;3161;48.794;9.784;2023-04-25T00:09:44;9.10;99.90
6256;DHT22;3161;48.794;9.784;2023-04-25T00:12:12;9.10;99.90
6256;DHT22;3161;48.794;9.784;2023-04-25T00:14:39;9.10;99.90
6256;DHT22;3161;48.794;9.784;2023-04-25T00:17:07;9.10;99.90
6256;DHT22;3161;48.794;9.784;2023-04-25T00:19:34;9.20;99.90
6256;DHT22;3161;48.794;9.784;2023-04-25T00:22:04;9.20;99.90
6256;DHT22;3161;48.794;9.784;2023-04-25T00:24:32;9.20;99.90
6256;DHT22;3161;48.794;9.784;2023-04-25T00:26:59;9.30;99.90
6256;DHT22;3161;48.794;9.784;2023-04-25T00:29:27;9.20;99.90
6256;DHT22;3161;48.794;9.784;2023-04-25T00:31:54;9.20;99.90
6256;DHT22;3161;48.794;9.784;2023-04-25T00:34:22;9.20;99.90
6256;DHT22;3161;48.794;9.784;2023-04-25T00:36:50;9.20;99.90
6256;DHT22;3161;48.794;9.784;2023-04-25T00:39:17;9.20;99.90
6256;DHT22;3161;48.794;9.784;2023-04-25T00:41:45;9.30;99.90
6256;DHT22;3161;48.794;9.784;2023-04-25T00:44:13;9.30;99.90
6256;DHT22;3161;48.794;9.784;2023-04-25T00:46:43;9.30;99.90
6256;DHT22;3161;48.794;9.784;2023-04-25T00:49:11;9.30;99.90
6256;DHT22;3161;48.794;9.784;2023-04-25T00:51:40;9.30;99.90
6256;DHT22;3161;48.794;9.784;2023-04-25T00:54:08;9.30;99.90
6256;DHT22;3161;48.794;9.784;2023-04-25T00:56:36;9.30;99.90
6256;DHT22;3161;48.794;9.784;2023-04-25T00:59:03;9.40;99.90
6256;DHT22;3161;48.794;9.784;2023-04-25T01:01:31;9.40;99.90
6256;DHT22;3161;48.794;9.784;2023-04-25T01:03:59;9.30;99.90
6256;DHT22;3161;48.794;9.784;2023-04-25T01:06:28;9.30;99.90
6256;DHT22;3161;48.794;9.784;2023-04-25T01:08:56;9.20;99.90
6256;DHT22;3161;48.794;9.784;2023-04-25T01:11:24;9.20;99.90
6256;DHT22;3161;48.794;9.784;2023-04-25T01:13:52;9.20;99.90
6256;DHT22;3161;48.794;9.784;2023-04-25T01:16:20;9.20;99.90
6256;DHT22;3161;48.794;9.784;2023-04-25T01:18:49;9.20;99.90
6256;DHT22;3161;48.794;9.784;2023-04-25T01:21:17;9.20;99.90
6256;DHT22;3161;48.794;9.784;2023-04-25T01:23:45;9.20;99.90
6256;DHT22;3161;48.794;9.784;2023-04-25T01:26:13;9.20;99.90
6256;DHT22;3161;48.794;9.784;2023-04-25T01:28:41;9.20;99.90
6256;DHT22;3161;48.794;9.784;2023-04-25T01:31:09;9.20;99.90
6256;DHT22;3161;48.794;9.784;2023-04-25T01:33:37;9.10;99.90
6256;DHT22;3161;48.794;9.784;2023-04-25T01:36:06;9.10;99.90
6256;DHT22;3161;48.794;9.784;2023-04-25T01:38:33;9.10;99.90
6256;DHT22;3161;48.794;9.784;2023-04-25T01:41:01;9.00;99.90
6256;DHT22;3161;48.794;9.784;2023-04-25T01:43:29;9.00;99.90
6256;DHT22;3161;48.794;9.784;2023-04-25T01:45:57;9.00;99.90
6256;DHT22;3161;48.794;9.784;2023-04-25T01:48:25;8.90;99.90
6256;DHT22;3161;48.794;9.784;2023-04-25T01:50:53;8.90;99.90
6256;DHT22;3161;48.794;9.784;2023-04-25T01:53:21;8.90;99.90
6256;DHT22;3161;48.794;9.784;2023-04-25T01:55:49;8.90;99.90
6256;DHT22;3161;48.794;9.784;2023-04-25T01:58:16;8.90;99.90
6256;DHT22;3161;48.794;9.784;2023-04-25T02:00:44;8.80;99.90
6256;DHT22;3161;48.794;9.784;2023-04-25T02:03:11;8.80;99.90
6256;DHT22;3161;48.794;9.784;2023-04-25T02:05:40;8.80;99.90
6256;DHT22;3161;48.794;9.784;2023-04-25T02:08:08;8.70;99.90
6256;DHT22;3161;48.794;9.784;2023-04-25T02:10:36;8.70;99.90
6256;DHT22;3161;48.794;9.784;2023-04-25T02:13:04;8.70;99.90
6256;DHT22;3161;48.794;9.784;2023-04-25T02:15:33;8.70;99.90
6256;DHT22;3161;48.794;9.784;2023-04-25T02:18:00;8.60;99.90
6256;DHT22;3161;48.794;9.784;2023-04-25T02:20:29;8.60;99.90
6256;DHT22;3161;48.794;9.784;2023-04-25T02:22:57;8.70;99.90
6256;DHT22;3161;48.794;9.784;2023-04-25T02:25:25;8.70;99.90
6256;DHT22;3161;48.794;9.784;2023-04-25T02:27:53;8.70;99.90
6256;DHT22;3161;48.794;9.784;2023-04-25T02:30:21;8.70;99.90
6256;DHT22;3161;48.794;9.784;2023-04-25T02:32:48;8.60;99.90
6256;DHT22;3161;48.794;9.784;2023-04-25T02:35:16;8.60;99.90
6256;DHT22;3161;48.794;9.784;2023-04-25T02:37:43;8.60;99.90
6256;DHT22;3161;48.794;9.784;2023-04-25T02:40:11;8.60;99.90
6256;DHT22;3161;48.794;9.784;2023-04-25T02:42:39;8.60;99.90
6256;DHT22;3161;48.794;9.784;2023-04-25T02:45:07;8.50;99.90
6256;DHT22;3161;48.794;9.784;2023-04-25T02:47:35;8.50;99.90
6256;DHT22;3161;48.794;9.784;2023-04-25T02:50:02;8.50;99.90
6256;DHT22;3161;48.794;9.784;2023-04-25T02:52:30;8.50;99.90
6256;DHT22;3161;48.794;9.784;2023-04-25T02:54:58;8.50;99.90
6256;DHT22;3161;48.794;9.784;2023-04-25T02:57:25;8.50;99.90
6256;DHT22;3161;48.794;9.784;2023-04-25T02:59:53;8.40;99.90
6256;DHT22;3161;48.794;9.784;2023-04-25T03:02:20;8.40;99.90
6256;DHT22;3161;48.794;9.784;2023-04-25T03:04:48;8.40;99.90
6256;DHT22;3161;48.794;9.784;2023-04-25T03:07:15;8.40;99.90
6256;DHT22;3161;48.794;9.784;2023-04-25T03:09:43;8.40;99.90
6256;DHT22;3161;48.794;9.784;2023-04-25T03:12:10;8.40;99.90
6256;DHT22;3161;48.794;9.784;2023-04-25T03:14:38;8.40;99.90
6256;DHT22;3161;48.794;9.784;2023-04-25T03:17:05;8.40;99.90
6256;DHT22;3161;48.794;9.784;2023-04-25T03:19:33;8.40;99.90
6256;DHT22;3161;48.794;9.784;2023-04-25T03:22:00;8.40;99.90
6256;DHT22;3161;48.794;9.784;2023-04-25T03:24:28;8.40;99.90
6256;DHT22;3161;48.794;9.784;2023-04-25T03:26:55;8.30;99.90
6256;DHT22;3161;48.794;9.784;2023-04-25T03:29:23;8.30;99.90
6256;DHT22;3161;48.794;9.784;2023-04-25T03:31:52;8.30;99.90
6256;DHT22;3161;48.794;9.784;2023-04-25T03:34:20;8.30;99.90
6256;DHT22;3161;48.794;9.784;2023-04-25T03:36:49;8.30;99.90
6256;DHT22;3161;48.794;9.784;2023-04-25T03:39:16;8.30;99.90
6256;DHT22;3161;48.794;9.784;2023-04-25T03:41:44;8.40;99.90
6256;DHT22;3161;48.794;9.784;2023-04-25T03:44:11;8.40;99.90
6256;DHT22;3161;48.794;9.784;2023-04-25T03:46:39;8.40;99.90
6256;DHT22;3161;48.794;9.784;2023-04-25T03:49:06;8.40;99.90
6256;DHT22;3161;48.794;9.784;2023-04-25T03:51:34;8.40;99.90
6256;DHT22;3161;48.794;9.784;2023-04-25T03:54:02;8.40;99.90
6256;DHT22;3161;48.794;9.784;2023-04-25T03:56:36;8.50;99.90
6256;DHT22;3161;48.794;9.784;2023-04-25T03:59:03;8.50;99.90
6256;DHT22;3161;48.794;9.784;2023-04-25T04:01:31;8.50;99.90
6256;DHT22;3161;48.794;9.784;2023-04-25T04:03:58;8.60;99.90
6256;DHT22;3161;48.794;9.784;2023-04-25T04:06:26;8.60;99.90
6256;DHT22;3161;48.794;9.784;2023-04-25T04:08:55;8.60;99.90
6256;DHT22;3161;48.794;9.784;2023-04-25T04:11:23;8.60;99.90
6256;DHT22;3161;48.794;9.784;2023-04-25T04:13:50;8.70;99.90
6256;DHT22;3161;48.794;9.784;2023-04-25T04:16:18;8.70;99.90
6256;DHT22;3161;48.794;9.784;2023-04-25T04:18:46;8.70;99.90
6256;DHT22;3161;48.794;9.784;2023-04-25T04:21:13;8.70;99.90
6256;DHT22;3161;48.794;9.784;2023-04-25T04:23:41;8.70;99.90
6256;DHT22;3161;48.794;9.784;2023-04-25T04:26:09;8.80;99.90
6256;DHT22;3161;48.794;9.784;2023-04-25T04:28:37;8.80;99.90
6256;DHT22;3161;48.794;9.784;2023-04-25T04:31:05;8.80;99.90
6256;DHT22;3161;48.794;9.784;2023-04-25T04:33:37;8.80;99.90
6256;DHT22;3161;48.794;9.784;2023-04-25T04:36:05;8.80;99.90
6256;DHT22;3161;48.794;9.784;2023-04-25T04:38:34;8.80;99.90
6256;DHT22;3161;48.794;9.784;2023-04-25T04:41:02;8.90;99.90
6256;DHT22;3161;48.794;9.784;2023-04-25T04:43:30;8.90;99.90
6256;DHT22;3161;48.794;9.784;2023-04-25T04:46:01;8.90;99.90
6256;DHT22;3161;48.794;9.784;2023-04-25T04:48:34;8.90;99.90
6256;DHT22;3161;48.794;9.784;2023-04-25T04:51:01;8.90;99.90
6256;DHT22;3161;48.794;9.784;2023-04-25T04:53:29;9.00;99.90
6256;DHT22;3161;48.794;9.784;2023-04-25T04:55:56;9.00;99.90
6256;DHT22;3161;48.794;9.784;2023-04-25T04:58:24;9.00;99.90
6256;DHT22;3161;48.794;9.784;2023-04-25T05:00:51;9.00;99.90
6256;DHT22;3161;48.794;9.784;2023-04-25T05:03:19;9.00;99.90
6256;DHT22;3161;48.794;9.784;2023-04-25T05:05:46;9.00;99.90
6256;DHT22;3161;48.794;9.784;2023-04-25T05:08:14;9.00;99.90
6256;DHT22;3161;48.794;9.784;2023-04-25T05:10:41;9.00;99.90
6256;DHT22;3161;48.794;9.784;2023-04-25T05:13:09;9.00;99.90
6256;DHT22;3161;48.794;9.784;2023-04-25T05:15:36;9.00;99.90
6256;DHT22;3161;48.794;9.784;2023-04-25T05:18:04;9.10;99.90
6256;DHT22;3161;48.794;9.784;2023-04-25T05:20:31;9.10;99.90
6256;DHT22;3161;48.794;9.784;2023-04-25T05:22:59;9.20;99.90
6256;DHT22;3161;48.794;9.784;2023-04-25T05:25:27;9.20;99.90
6256;DHT22;3161;48.794;9.784;2023-04-25T05:27:54;9.30;99.90
6256;DHT22;3161;48.794;9.784;2023-04-25T05:30:23;9.20;99.90
6256;DHT22;3161;48.794;9.784;2023-04-25T05:32:50;9.20;99.90
6256;DHT22;3161;48.794;9.784;2023-04-25T05:35:18;9.30;99.90
6256;DHT22;3161;48.794;9.784;2023-04-25T05:37:45;9.40;99.90
6256;DHT22;3161;48.794;9.784;2023-04-25T05:40:13;9.40;99.90
6256;DHT22;3161;48.794;9.784;2023-04-25T05:42:40;9.40;99.90
6256;DHT22;3161;48.794;9.784;2023-04-25T05:45:09;9.40;99.90
6256;DHT22;3161;48.794;9.784;2023-04-25T05:47:36;9.40;99.90
6256;DHT22;3161;48.794;9.784;2023-04-25T05:50:04;9.40;99.90
6256;DHT22;3161;48.794;9.784;2023-04-25T05:52:32;9.50;99.90
6256;DHT22;3161;48.794;9.784;2023-04-25T05:55:00;9.50;99.90
6256;DHT22;3161;48.794;9.784;2023-04-25T05:57:27;9.50;99.90
6256;DHT22;3161;48.794;9.784;2023-04-25T05:59:55;9.60;99.90
6256;DHT22;3161;48.794;9.784;2023-04-25T06:02:22;9.60;99.90
6256;DHT22;3161;48.794;9.784;2023-04-25T06:04:50;9.60;99.90
6256;DHT22;3161;48.794;9.784;2023-04-25T06:07:19;9.60;99.90
6256;DHT22;3161;48.794;9.784;2023-04-25T06:09:47;9.70;99.90
6256;DHT22;3161;48.794;9.784;2023-04-25T06:12:14;9.80;99.90
6256;DHT22;3161;48.794;9.784;2023-04-25T06:14:42;9.90;99.90
6256;DHT22;3161;48.794;9.784;2023-04-25T06:17:09;10.00;99.90
6256;DHT22;3161;48.794;9.784;2023-04-25T06:19:37;10.00;99.90
6256;DHT22;3161;48.794;9.784;2023-04-25T06:22:04;10.20;99.90
6256;DHT22;3161;48.794;9.784;2023-04-25T06:24:34;10.30;99.90
6256;DHT22;3161;48.794;9.784;2023-04-25T06:27:01;10.40;99.90
6256;DHT22;3161;48.794;9.784;2023-04-25T06:29:29;10.50;99.90
6256;DHT22;3161;48.794;9.784;2023-04-25T06:32:13;10.50;99.90
6256;DHT22;3161;48.794;9.784;2023-04-25T06:34:41;10.50;99.90
6256;DHT22;3161;48.794;9.784;2023-04-25T06:37:08;10.50;99.90
6256;DHT22;3161;48.794;9.784;2023-04-25T06:39:36;10.50;99.90
6256;DHT22;3161;48.794;9.784;2023-04-25T06:42:03;10.50;99.90
6256;DHT22;3161;48.794;9.784;2023-04-25T06:44:31;10.50;99.90
6256;DHT22;3161;48.794;9.784;2023-04-25T06:46:58;10.60;99.90
6256;DHT22;3161;48.794;9.784;2023-04-25T06:49:26;10.70;99.90
6256;DHT22;3161;48.794;9.784;2023-04-25T06:51:53;10.70;99.90
6256;DHT22;3161;48.794;9.784;2023-04-25T06:54:21;10.70;99.90
6256;DHT22;3161;48.794;9.784;2023-04-25T06:56:48;10.60;99.90
6256;DHT22;3161;48.794;9.784;2023-04-25T06:59:16;10.60;99.90
6256;DHT22;3161;48.794;9.784;2023-04-25T07:01:44;10.80;99.90
6256;DHT22;3161;48.794;9.784;2023-04-25T07:04:11;11.10;99.90
6256;DHT22;3161;48.794;9.784;2023-04-25T07:06:39;11.40;99.90
6256;DHT22;3161;48.794;9.784;2023-04-25T07:09:09;11.70;99.90
6256;DHT22;3161;48.794;9.784;2023-04-25T07:11:36;11.80;99.90
6256;DHT22;3161;48.794;9.784;2023-04-25T07:14:04;11.90;99.90
6256;DHT22;3161;48.794;9.784;2023-04-25T07:16:32;12.10;99.90
6256;DHT22;3161;48.794;9.784;2023-04-25T07:18:59;12.50;99.90
6256;DHT22;3161;48.794;9.784;2023-04-25T07:21:27;12.90;99.90
6256;DHT22;3161;48.794;9.784;2023-04-25T07:23:54;13.20;99.90
6256;DHT22;3161;48.794;9.784;2023-04-25T07:26:22;13.70;99.90
6256;DHT22;3161;48.794;9.784;2023-04-25T07:28:49;14.20;99.90
6256;DHT22;3161;48.794;9.784;2023-04-25T07:31:18;14.30;99.90
6256;DHT22;3161;48.794;9.784;2023-04-25T07:33:45;14.40;99.90
6256;DHT22;3161;48.794;9.784;2023-04-25T07:36:13;14.70;99.90
6256;DHT22;3161;48.794;9.784;2023-04-25T07:38:42;14.90;99.90
6256;DHT22;3161;48.794;9.784;2023-04-25T07:41:09;15.30;99.90
6256;DHT22;3161;48.794;9.784;2023-04-25T07:43:37;15.70;99.90
6256;DHT22;3161;48.794;9.784;2023-04-25T07:46:04;16.10;99.90
6256;DHT22;3161;48.794;9.784;2023-04-25T07:48:32;16.30;99.90
6256;DHT22;3161;48.794;9.784;2023-04-25T07:51:00;16.20;99.90
6256;DHT22;3161;48.794;9.784;2023-04-25T07:53:27;15.80;99.90
6256;DHT22;3161;48.794;9.784;2023-04-25T07:55:55;15.30;99.90
6256;DHT22;3161;48.794;9.784;2023-04-25T07:58:22;14.80;99.90
6256;DHT22;3161;48.794;9.784;2023-04-25T08:00:50;14.30;99.90
6256;DHT22;3161;48.794;9.784;2023-04-25T08:03:17;13.90;99.90
6256;DHT22;3161;48.794;9.784;2023-04-25T08:05:46;13.60;99.90
6256;DHT22;3161;48.794;9.784;2023-04-25T08:08:13;13.30;99.90
6256;DHT22;3161;48.794;9.784;2023-04-25T08:10:41;13.10;99.90
6256;DHT22;3161;48.794;9.784;2023-04-25T08:13:09;13.00;99.90
6256;DHT22;3161;48.794;9.784;2023-04-25T08:15:36;12.90;99.90
6256;DHT22;3161;48.794;9.784;2023-04-25T08:18:04;12.80;99.90
6256;DHT22;3161;48.794;9.784;2023-04-25T08:20:31;12.60;99.90
6256;DHT22;3161;48.794;9.784;2023-04-25T08:22:59;12.50;99.90
6256;DHT22;3161;48.794;9.784;2023-04-25T08:25:27;12.40;99.90
6256;DHT22;3161;48.794;9.784;2023-04-25T08:27:54;12.40;99.90
6256;DHT22;3161;48.794;9.784;2023-04-25T08:30:23;12.40;99.90
6256;DHT22;3161;48.794;9.784;2023-04-25T08:32:51;12.50;99.90
6256;DHT22;3161;48.794;9.784;2023-04-25T08:35:18;12.60;99.90
6256;DHT22;3161;48.794;9.784;2023-04-25T08:37:47;12.60;99.90
6256;DHT22;3161;48.794;9.784;2023-04-25T08:40:16;12.50;99.90
6256;DHT22;3161;48.794;9.784;2023-04-25T08:42:43;12.50;99.90
6256;DHT22;3161;48.794;9.784;2023-04-25T08:45:11;12.40;99.90
6256;DHT22;3161;48.794;9.784;2023-04-25T08:47:39;12.30;99.90
6256;DHT22;3161;48.794;9.784;2023-04-25T08:50:08;12.30;99.90
6256;DHT22;3161;48.794;9.784;2023-04-25T08:52:43;12.30;99.90
6256;DHT22;3161;48.794;9.784;2023-04-25T08:55:10;12.30;99.90
6256;DHT22;3161;48.794;9.784;2023-04-25T08:57:44;12.30;99.90
6256;DHT22;3161;48.794;9.784;2023-04-25T09:00:12;12.40;99.90
6256;DHT22;3161;48.794;9.784;2023-04-25T09:02:42;12.30;99.90
6256;DHT22;3161;48.794;9.784;2023-04-25T09:05:10;12.40;99.90
6256;DHT22;3161;48.794;9.784;2023-04-25T09:07:39;12.30;99.90
6256;DHT22;3161;48.794;9.784;2023-04-25T09:10:06;12.20;99.90
6256;DHT22;3161;48.794;9.784;2023-04-25T09:12:35;12.20;99.90
6256;DHT22;3161;48.794;9.784;2023-04-25T09:15:06;12.20;99.90
6256;DHT22;3161;48.794;9.784;2023-04-25T09:17:34;12.20;99.90
6256;DHT22;3161;48.794;9.784;2023-04-25T09:20:12;12.20;99.90
6256;DHT22;3161;48.794;9.784;2023-04-25T09:22:40;12.20;99.90
6256;DHT22;3161;48.794;9.784;2023-04-25T09:25:10;12.30;99.90
6256;DHT22;3161;48.794;9.784;2023-04-25T09:27:52;12.30;99.90
6256;DHT22;3161;48.794;9.784;2023-04-25T09:30:31;12.30;99.90
6256;DHT22;3161;48.794;9.784;2023-04-25T09:33:07;12.40;99.90
6256;DHT22;3161;48.794;9.784;2023-04-25T09:35:39;12.40;99.90
6256;DHT22;3161;48.794;9.784;2023-04-25T09:38:12;12.30;99.90
6256;DHT22;3161;48.794;9.784;2023-04-25T09:40:44;12.20;99.90
6256;DHT22;3161;48.794;9.784;2023-04-25T09:43:24;12.20;99.90
6256;DHT22;3161;48.794;9.784;2023-04-25T09:45:54;12.10;99.90
6256;DHT22;3161;48.794;9.784;2023-04-25T09:48:26;12.10;99.90
6256;DHT22;3161;48.794;9.784;2023-04-25T09:51:13;12.20;99.90
6256;DHT22;3161;48.794;9.784;2023-04-25T09:53:43;12.10;99.90
6256;DHT22;3161;48.794;9.784;2023-04-25T09:56:12;12.00;99.90
6256;DHT22;3161;48.794;9.784;2023-04-25T09:58:40;12.00;99.90
6256;DHT22;3161;48.794;9.784;2023-04-25T10:01:10;12.00;99.90
6256;DHT22;3161;48.794;9.784;2023-04-25T10:03:39;12.00;99.90
6256;DHT22;3161;48.794;9.784;2023-04-25T10:06:11;12.00;99.90
6256;DHT22;3161;48.794;9.784;2023-04-25T10:08:38;11.90;99.90
6256;DHT22;3161;48.794;9.784;2023-04-25T10:11:07;11.70;99.90
6256;DHT22;3161;48.794;9.784;2023-04-25T10:13:36;11.60;99.90
6256;DHT22;3161;48.794;9.784;2023-04-25T10:16:04;11.30;99.90
6256;DHT22;3161;48.794;9.784;2023-04-25T10:18:33;11.00;99.90
6256;DHT22;3161;48.794;9.784;2023-04-25T10:21:03;10.70;99.90
6256;DHT22;3161;48.794;9.784;2023-04-25T10:23:31;10.50;99.90
6256;DHT22;3161;48.794;9.784;2023-04-25T10:26:01;10.30;99.90
6256;DHT22;3161;48.794;9.784;2023-04-25T10:28:28;10.30;99.90
6256;DHT22;3161;48.794;9.784;2023-04-25T10:33:37;10.40;99.90
6256;DHT22;3161;48.794;9.784;2023-04-25T10:36:12;10.50;99.90
6256;DHT22;3161;48.794;9.784;2023-04-25T10:38:42;10.60;99.90
6256;DHT22;3161;48.794;9.784;2023-04-25T10:41:11;10.80;99.90
6256;DHT22;3161;48.794;9.784;2023-04-25T10:43:43;10.90;99.90
6256;DHT22;3161;48.794;9.784;2023-04-25T10:46:28;10.80;99.90
6256;DHT22;3161;48.794;9.784;2023-04-25T10:49:01;10.90;99.90
6256;DHT22;3161;48.794;9.784;2023-04-25T10:51:31;10.80;99.90
6256;DHT22;3161;48.794;9.784;2023-04-25T10:54:01;10.90;99.90
6256;DHT22;3161;48.794;9.784;2023-04-25T10:59:07;10.80;99.90
6256;DHT22;3161;48.794;9.784;2023-04-25T11:01:44;10.80;99.90
6256;DHT22;3161;48.794;9.784;2023-04-25T11:04:28;10.70;99.90
6256;DHT22;3161;48.794;9.784;2023-04-25T11:09:40;10.60;99.90
6256;DHT22;3161;48.794;9.784;2023-04-25T11:12:08;10.40;99.90
6256;DHT22;3161;48.794;9.784;2023-04-25T11:14:38;10.20;99.90
6256;DHT22;3161;48.794;9.784;2023-04-25T11:17:05;10.10;99.90
6256;DHT22;3161;48.794;9.784;2023-04-25T11:19:33;10.00;99.90
6256;DHT22;3161;48.794;9.784;2023-04-25T11:22:02;10.00;99.90
6256;DHT22;3161;48.794;9.784;2023-04-25T11:24:34;10.00;99.90
6256;DHT22;3161;48.794;9.784;2023-04-25T11:27:03;9.90;99.90
6256;DHT22;3161;48.794;9.784;2023-04-25T11:29:32;9.90;99.90
6256;DHT22;3161;48.794;9.784;2023-04-25T11:32:00;9.80;99.90
6256;DHT22;3161;48.794;9.784;2023-04-25T11:34:29;9.60;99.90
6256;DHT22;3161;48.794;9.784;2023-04-25T11:37:01;9.40;99.90
6256;DHT22;3161;48.794;9.784;2023-04-25T11:39:29;9.10;99.90
6256;DHT22;3161;48.794;9.784;2023-04-25T11:41:56;8.90;99.90
6256;DHT22;3161;48.794;9.784;2023-04-25T11:44:24;8.70;99.90
6256;DHT22;3161;48.794;9.784;2023-04-25T11:46:52;8.50;99.90
6256;DHT22;3161;48.794;9.784;2023-04-25T11:49:20;8.30;99.90
6256;DHT22;3161;48.794;9.784;2023-04-25T11:51:48;8.20;99.90
6256;DHT22;3161;48.794;9.784;2023-04-25T11:54:16;8.10;99.90
6256;DHT22;3161;48.794;9.784;2023-04-25T11:56:44;8.00;99.90
6256;DHT22;3161;48.794;9.784;2023-04-25T11:59:13;7.90;99.90
6256;DHT22;3161;48.794;9.784;2023-04-25T12:01:47;7.90;99.90
6256;DHT22;3161;48.794;9.784;2023-04-25T12:04:25;7.90;99.90
6256;DHT22;3161;48.794;9.784;2023-04-25T12:06:54;7.80;99.90
6256;DHT22;3161;48.794;9.784;2023-04-25T12:09:30;7.70;99.90
6256;DHT22;3161;48.794;9.784;2023-04-25T12:11:59;7.80;99.90
6256;DHT22;3161;48.794;9.784;2023-04-25T12:14:34;7.70;99.90
6256;DHT22;3161;48.794;9.784;2023-04-25T12:17:03;7.70;99.90
6256;DHT22;3161;48.794;9.784;2023-04-25T12:19:37;7.80;99.90
6256;DHT22;3161;48.794;9.784;2023-04-25T12:22:25;7.80;99.90
6256;DHT22;3161;48.794;9.784;2023-04-25T12:24:52;7.90;99.90
6256;DHT22;3161;48.794;9.784;2023-04-25T12:27:20;8.00;99.90
6256;DHT22;3161;48.794;9.784;2023-04-25T12:29:55;8.20;99.90
6256;DHT22;3161;48.794;9.784;2023-04-25T12:32:23;8.20;99.90
6256;DHT22;3161;48.794;9.784;2023-04-25T12:34:51;8.30;99.90
6256;DHT22;3161;48.794;9.784;2023-04-25T12:37:19;8.50;99.90
6256;DHT22;3161;48.794;9.784;2023-04-25T12:39:46;8.60;99.90
6256;DHT22;3161;48.794;9.784;2023-04-25T12:42:14;8.60;99.90
6256;DHT22;3161;48.794;9.784;2023-04-25T12:44:41;8.70;99.90
6256;DHT22;3161;48.794;9.784;2023-04-25T12:47:09;8.90;99.90
6256;DHT22;3161;48.794;9.784;2023-04-25T12:49:37;9.00;99.90
6256;DHT22;3161;48.794;9.784;2023-04-25T12:52:04;9.00;99.90
6256;DHT22;3161;48.794;9.784;2023-04-25T12:54:32;9.10;99.90
6256;DHT22;3161;48.794;9.784;2023-04-25T12:56:59;9.30;99.90
6256;DHT22;3161;48.794;9.784;2023-04-25T12:59:28;9.80;99.90
6256;DHT22;3161;48.794;9.784;2023-04-25T13:01:56;10.20;99.90
6256;DHT22;3161;48.794;9.784;2023-04-25T13:04:23;10.40;99.90
6256;DHT22;3161;48.794;9.784;2023-04-25T13:06:51;10.70;99.90
6256;DHT22;3161;48.794;9.784;2023-04-25T13:09:19;10.90;99.90
6256;DHT22;3161;48.794;9.784;2023-04-25T13:11:54;11.10;99.90
6256;DHT22;3161;48.794;9.784;2023-04-25T13:14:22;11.40;99.90
6256;DHT22;3161;48.794;9.784;2023-04-25T13:16:50;11.70;99.90
6256;DHT22;3161;48.794;9.784;2023-04-25T13:19:17;11.90;99.90
6256;DHT22;3161;48.794;9.784;2023-04-25T13:21:45;12.00;99.90
6256;DHT22;3161;48.794;9.784;2023-04-25T13:24:12;12.20;99.90
6256;DHT22;3161;48.794;9.784;2023-04-25T13:26:40;12.20;99.90
6256;DHT22;3161;48.794;9.784;2023-04-25T13:29:07;12.20;99.90
6256;DHT22;3161;48.794;9.784;2023-04-25T13:31:35;12.30;99.90
6256;DHT22;3161;48.794;9.784;2023-04-25T13:34:02;12.30;99.90
6256;DHT22;3161;48.794;9.784;2023-04-25T13:36:30;12.40;99.90
6256;DHT22;3161;48.794;9.784;2023-04-25T13:38:58;12.70;99.90
6256;DHT22;3161;48.794;9.784;2023-04-25T13:41:26;12.70;99.90
6256;DHT22;3161;48.794;9.784;2023-04-25T13:43:53;12.70;99.90
6256;DHT22;3161;48.794;9.784;2023-04-25T13:46:21;12.60;99.90
6256;DHT22;3161;48.794;9.784;2023-04-25T13:48:48;12.60;99.90
6256;DHT22;3161;48.794;9.784;2023-04-25T13:51:16;12.70;99.90
6256;DHT22;3161;48.794;9.784;2023-04-25T13:53:44;12.90;99.90
6256;DHT22;3161;48.794;9.784;2023-04-25T13:56:12;13.30;99.90
6256;DHT22;3161;48.794;9.784;2023-04-25T13:58:39;13.40;99.90
6256;DHT22;3161;48.794;9.784;2023-04-25T14:01:07;13.30;99.90
6256;DHT22;3161;48.794;9.784;2023-04-25T14:03:34;13.40;99.90
6256;DHT22;3161;48.794;9.784;2023-04-25T14:06:02;13.50;99.90
6256;DHT22;3161;48.794;9.784;2023-04-25T14:08:30;13.40;99.90
6256;DHT22;3161;48.794;9.784;2023-04-25T14:10:58;13.40;99.90
6256;DHT22;3161;48.794;9.784;2023-04-25T14:13:26;13.30;99.90
6256;DHT22;3161;48.794;9.784;2023-04-25T14:15:53;13.10;99.90
6256;DHT22;3161;48.794;9.784;2023-04-25T14:18:22;12.90;99.90
6256;DHT22;3161;48.794;9.784;2023-04-25T14:20:49;12.60;99.90
6256;DHT22;3161;48.794;9.784;2023-04-25T14:23:17;12.30;99.90
6256;DHT22;3161;48.794;9.784;2023-04-25T14:25:45;12.10;99.90
6256;DHT22;3161;48.794;9.784;2023-04-25T14:28:13;11.80;99.90
6256;DHT22;3161;48.794;9.784;2023-04-25T14:30:40;11.50;99.90
6256;DHT22;3161;48.794;9.784;2023-04-25T14:33:08;11.40;99.90
6256;DHT22;3161;48.794;9.784;2023-04-25T14:35:35;11.20;99.90
6256;DHT22;3161;48.794;9.784;2023-04-25T14:38:03;11.20;99.90
6256;DHT22;3161;48.794;9.784;2023-04-25T14:40:31;11.20;99.90
6256;DHT22;3161;48.794;9.784;2023-04-25T14:42:59;11.30;99.90
6256;DHT22;3161;48.794;9.784;2023-04-25T14:45:27;11.40;99.90
6256;DHT22;3161;48.794;9.784;2023-04-25T14:47:54;11.70;99.90
6256;DHT22;3161;48.794;9.784;2023-04-25T14:50:22;12.00;99.90
6256;DHT22;3161;48.794;9.784;2023-04-25T14:52:49;12.30;99.90
6256;DHT22;3161;48.794;9.784;2023-04-25T14:55:19;12.40;99.90
6256;DHT22;3161;48.794;9.784;2023-04-25T14:57:47;12.40;99.90
6256;DHT22;3161;48.794;9.784;2023-04-25T15:00:15;12.40;99.90
6256;DHT22;3161;48.794;9.784;2023-04-25T15:02:43;12.30;99.90
6256;DHT22;3161;48.794;9.784;2023-04-25T15:05:10;12.00;99.90
6256;DHT22;3161;48.794;9.784;2023-04-25T15:07:38;11.80;99.90
6256;DHT22;3161;48.794;9.784;2023-04-25T15:10:07;11.60;99.90
6256;DHT22;3161;48.794;9.784;2023-04-25T15:12:37;11.50;99.90
6256;DHT22;3161;48.794;9.784;2023-04-25T15:15:05;11.50;99.90
6256;DHT22;3161;48.794;9.784;2023-04-25T15:17:35;11.40;99.90
6256;DHT22;3161;48.794;9.784;2023-04-25T15:20:02;11.40;99.90
6256;DHT22;3161;48.794;9.784;2023-04-25T15:22:31;11.40;99.90
6256;DHT22;3161;48.794;9.784;2023-04-25T15:24:59;11.40;99.90
6256;DHT22;3161;48.794;9.784;2023-04-25T15:27:26;11.40;99.90
6256;DHT22;3161;48.794;9.784;2023-04-25T15:29:54;11.20;99.90
6256;DHT22;3161;48.794;9.784;2023-04-25T15:32:22;11.00;99.90
6256;DHT22;3161;48.794;9.784;2023-04-25T15:34:49;11.00;99.90
6256;DHT22;3161;48.794;9.784;2023-04-25T15:37:17;10.70;99.90
6256;DHT22;3161;48.794;9.784;2023-04-25T15:39:44;10.60;99.90
6256;DHT22;3161;48.794;9.784;2023-04-25T15:42:12;10.50;99.90
6256;DHT22;3161;48.794;9.784;2023-04-25T15:44:39;10.50;99.90
6256;DHT22;3161;48.794;9.784;2023-04-25T15:47:07;10.40;99.90
6256;DHT22;3161;48.794;9.784;2023-04-25T15:49:35;10.30;99.90
6256;DHT22;3161;48.794;9.784;2023-04-25T15:52:02;10.10;99.90
6256;DHT22;3161;48.794;9.784;2023-04-25T15:54:30;10.00;99.90
6256;DHT22;3161;48.794;9.784;2023-04-25T15:56:57;9.90;99.90
6256;DHT22;3161;48.794;9.784;2023-04-25T15:59:25;9.90;99.90
6256;DHT22;3161;48.794;9.784;2023-04-25T16:01:53;9.80;99.90
6256;DHT22;3161;48.794;9.784;2023-04-25T16:04:22;9.80;99.90
6256;DHT22;3161;48.794;9.784;2023-04-25T16:06:50;9.70;99.90
6256;DHT22;3161;48.794;9.784;2023-04-25T16:09:18;9.60;99.90
6256;DHT22;3161;48.794;9.784;2023-04-25T16:11:46;9.60;99.90
6256;DHT22;3161;48.794;9.784;2023-04-25T16:14:14;9.60;99.90
6256;DHT22;3161;48.794;9.784;2023-04-25T16:16:41;9.50;99.90
6256;DHT22;3161;48.794;9.784;2023-04-25T16:19:10;9.50;99.90
6256;DHT22;3161;48.794;9.784;2023-04-25T16:21:37;9.50;99.90
6256;DHT22;3161;48.794;9.784;2023-04-25T16:24:05;9.50;99.90
6256;DHT22;3161;48.794;9.784;2023-04-25T16:26:33;9.50;99.90